CCM26C LFKB-LIMC
Flight info
| Callsign | CCM26C |
|---|---|
| Flight time | 0h 35m |
| Altitude | 24000 |
| Route | MEGER Z911 OLETI/N0345F180 M858 ULCOR |
| Aircraft | A320/M-SDE3FGHIRWY/LB1 |
Departure
| Time | 2026-05-05 16:53 |
|---|---|
| Airport | Bastia-Poretta International airport (LFKB) |
Arrival
| Time | 2026-05-05 17:28 |
|---|---|
| Airport | Milan Malpensa International Airport (LIMC) |
| Time | Latitude | Longitude | Altitude | Speed | Heading |
|---|---|---|---|---|---|
| 2026-05-05 16:23 | 42.54830 | 9.48162 | 35 ft | 0 kts | 252° |
| 2026-05-05 16:45 | 42.54831 | 9.48169 | 35 ft | 4 kts | 252° |
| 2026-05-05 16:45 | 42.54840 | 9.48204 | 34 ft | 4 kts | 252° |
| 2026-05-05 16:45 | 42.54846 | 9.48232 | 35 ft | 4 kts | 249° |
| 2026-05-05 16:45 | 42.54858 | 9.48259 | 33 ft | 4 kts | 202° |
| 2026-05-05 16:46 | 42.54879 | 9.48258 | 35 ft | 4 kts | 162° |
| 2026-05-05 16:46 | 42.54904 | 9.48247 | 33 ft | 2 kts | 162° |
| 2026-05-05 16:46 | 42.54906 | 9.48246 | 33 ft | 0 kts | 162° |
| 2026-05-05 16:49 | 42.54904 | 9.48247 | 33 ft | 1 kts | 162° |
| 2026-05-05 16:49 | 42.54879 | 9.48258 | 35 ft | 9 kts | 163° |
| 2026-05-05 16:49 | 42.54793 | 9.48293 | 35 ft | 16 kts | 163° |
| 2026-05-05 16:49 | 42.54694 | 9.48335 | 35 ft | 14 kts | 162° |
| 2026-05-05 16:50 | 42.54606 | 9.48372 | 33 ft | 13 kts | 162° |
| 2026-05-05 16:50 | 42.54526 | 9.48406 | 35 ft | 11 kts | 163° |
| 2026-05-05 16:50 | 42.54454 | 9.48419 | 35 ft | 10 kts | 188° |
| 2026-05-05 16:50 | 42.54390 | 9.48420 | 33 ft | 9 kts | 163° |
| 2026-05-05 16:51 | 42.54325 | 9.48447 | 35 ft | 12 kts | 162° |
| 2026-05-05 16:51 | 42.54239 | 9.48483 | 35 ft | 15 kts | 162° |
| 2026-05-05 16:51 | 42.54157 | 9.48545 | 35 ft | 13 kts | 132° |
| 2026-05-05 16:51 | 42.54127 | 9.48650 | 35 ft | 11 kts | 91° |
| 2026-05-05 16:52 | 42.54155 | 9.48741 | 35 ft | 10 kts | 50° |
| 2026-05-05 16:52 | 42.54222 | 9.48804 | 35 ft | 14 kts | 7° |
| 2026-05-05 16:52 | 42.54339 | 9.48761 | 34 ft | 29 kts | 343° |
| 2026-05-05 16:52 | 42.54784 | 9.48575 | 34 ft | 101 kts | 343° |
| 2026-05-05 16:53 | 42.55647 | 9.48210 | 61 ft | 153 kts | 341° |
| 2026-05-05 16:53 | 42.56661 | 9.47773 | 682 ft | 154 kts | 343° |
| 2026-05-05 16:53 | 42.57725 | 9.47438 | 1327 ft | 159 kts | 353° |
| 2026-05-05 16:53 | 42.58849 | 9.47316 | 1899 ft | 168 kts | 358° |
| 2026-05-05 16:54 | 42.60071 | 9.47363 | 2243 ft | 187 kts | 5° |
| 2026-05-05 16:54 | 42.61425 | 9.47606 | 2647 ft | 204 kts | 12° |
| 2026-05-05 16:54 | 42.62860 | 9.48121 | 3051 ft | 223 kts | 19° |
| 2026-05-05 16:54 | 42.64390 | 9.48910 | 3416 ft | 247 kts | 22° |
| 2026-05-05 16:55 | 42.66064 | 9.49786 | 3977 ft | 264 kts | 22° |
| 2026-05-05 16:55 | 42.67788 | 9.50678 | 4785 ft | 273 kts | 21° |
| 2026-05-05 16:55 | 42.69590 | 9.51603 | 5646 ft | 278 kts | 21° |
| 2026-05-05 16:55 | 42.71417 | 9.52541 | 6519 ft | 282 kts | 20° |
| 2026-05-05 16:56 | 42.73312 | 9.53308 | 7347 ft | 287 kts | 14° |
| 2026-05-05 16:56 | 42.75264 | 9.54023 | 8200 ft | 291 kts | 14° |
| 2026-05-05 16:56 | 42.77206 | 9.54736 | 9024 ft | 296 kts | 14° |
| 2026-05-05 16:56 | 42.79210 | 9.55470 | 9853 ft | 301 kts | 13° |
| 2026-05-05 16:57 | 42.81275 | 9.56227 | 10358 ft | 317 kts | 13° |
| 2026-05-05 16:57 | 42.83486 | 9.57040 | 10634 ft | 339 kts | 13° |
| 2026-05-05 16:57 | 42.85810 | 9.57900 | 11213 ft | 350 kts | 13° |
| 2026-05-05 16:57 | 42.88183 | 9.58783 | 11915 ft | 355 kts | 13° |
| 2026-05-05 16:58 | 42.90557 | 9.59665 | 12622 ft | 361 kts | 13° |
| 2026-05-05 16:58 | 42.92997 | 9.60572 | 13344 ft | 366 kts | 13° |
| 2026-05-05 16:58 | 42.95505 | 9.61283 | 13824 ft | 369 kts | 2° |
| 2026-05-05 16:58 | 42.98052 | 9.61184 | 13942 ft | 364 kts | 347° |
| 2026-05-05 16:59 | 43.00472 | 9.60242 | 13961 ft | 358 kts | 333° |
| 2026-05-05 16:59 | 43.02600 | 9.58609 | 13962 ft | 352 kts | 319° |
| 2026-05-05 16:59 | 43.04415 | 9.56409 | 13963 ft | 347 kts | 310° |
| 2026-05-05 16:59 | 43.06131 | 9.54091 | 13962 ft | 347 kts | 310° |
| 2026-05-05 17:00 | 43.07856 | 9.51777 | 13960 ft | 347 kts | 311° |
| 2026-05-05 17:00 | 43.09565 | 9.49489 | 13964 ft | 347 kts | 311° |
| 2026-05-05 17:00 | 43.11289 | 9.47179 | 14022 ft | 345 kts | 310° |
| 2026-05-05 17:00 | 43.13005 | 9.44879 | 14575 ft | 347 kts | 310° |
| 2026-05-05 17:01 | 43.14742 | 9.42545 | 15185 ft | 350 kts | 310° |
| 2026-05-05 17:01 | 43.16471 | 9.40211 | 15801 ft | 354 kts | 310° |
| 2026-05-05 17:01 | 43.18229 | 9.37833 | 16429 ft | 357 kts | 310° |
| 2026-05-05 17:01 | 43.20009 | 9.35423 | 17078 ft | 361 kts | 310° |
| 2026-05-05 17:02 | 43.21808 | 9.32990 | 17742 ft | 364 kts | 310° |
| 2026-05-05 17:02 | 43.23619 | 9.30541 | 18387 ft | 366 kts | 310° |
| 2026-05-05 17:02 | 43.25420 | 9.28102 | 18968 ft | 368 kts | 309° |
| 2026-05-05 17:02 | 43.27250 | 9.25617 | 19577 ft | 370 kts | 309° |
| 2026-05-05 17:03 | 43.29088 | 9.23120 | 20196 ft | 372 kts | 309° |
| 2026-05-05 17:03 | 43.30952 | 9.20632 | 20817 ft | 375 kts | 313° |
| 2026-05-05 17:03 | 43.33074 | 9.18482 | 21450 ft | 383 kts | 323° |
| 2026-05-05 17:03 | 43.35464 | 9.16891 | 22099 ft | 390 kts | 334° |
| 2026-05-05 17:04 | 43.38099 | 9.15856 | 22761 ft | 395 kts | 340° |
| 2026-05-05 17:04 | 43.40776 | 9.14940 | 23450 ft | 394 kts | 340° |
| 2026-05-05 17:04 | 43.43440 | 9.14021 | 24036 ft | 393 kts | 339° |
| 2026-05-05 17:04 | 43.46077 | 9.13101 | 24374 ft | 401 kts | 339° |
| 2026-05-05 17:05 | 43.48833 | 9.12129 | 24512 ft | 414 kts | 339° |
| 2026-05-05 17:05 | 43.51664 | 9.11131 | 24720 ft | 423 kts | 339° |
| 2026-05-05 17:05 | 43.54539 | 9.10124 | 25077 ft | 428 kts | 339° |
| 2026-05-05 17:05 | 43.57439 | 9.09113 | 25482 ft | 430 kts | 339° |
| 2026-05-05 17:06 | 43.60322 | 9.08111 | 25843 ft | 433 kts | 339° |
| 2026-05-05 17:06 | 43.63250 | 9.07095 | 25930 ft | 428 kts | 339° |
| 2026-05-05 17:06 | 43.66076 | 9.06122 | 25951 ft | 418 kts | 338° |
| 2026-05-05 17:06 | 43.68882 | 9.05152 | 25954 ft | 414 kts | 338° |
| 2026-05-05 17:07 | 43.71677 | 9.04178 | 25955 ft | 412 kts | 338° |
| 2026-05-05 17:07 | 43.74468 | 9.03193 | 25953 ft | 411 kts | 338° |
| 2026-05-05 17:07 | 43.77211 | 9.02219 | 25953 ft | 411 kts | 338° |
| 2026-05-05 17:07 | 43.80021 | 9.01360 | 25954 ft | 417 kts | 345° |
| 2026-05-05 17:08 | 43.82950 | 9.01125 | 25950 ft | 426 kts | 355° |
| 2026-05-05 17:08 | 43.85920 | 9.01455 | 25952 ft | 429 kts | 359° |
| 2026-05-05 17:08 | 43.88894 | 9.01832 | 25965 ft | 429 kts | 359° |
| 2026-05-05 17:08 | 43.91879 | 9.02201 | 25962 ft | 429 kts | 358° |
| 2026-05-05 17:09 | 43.94814 | 9.02556 | 25962 ft | 428 kts | 358° |
| 2026-05-05 17:09 | 43.97785 | 9.02905 | 25958 ft | 428 kts | 358° |
| 2026-05-05 17:09 | 44.00763 | 9.03251 | 25954 ft | 428 kts | 358° |
| 2026-05-05 17:09 | 44.03739 | 9.03598 | 25955 ft | 428 kts | 358° |
| 2026-05-05 17:10 | 44.06710 | 9.03948 | 25968 ft | 428 kts | 358° |
| 2026-05-05 17:10 | 44.09644 | 9.04296 | 25962 ft | 428 kts | 358° |
| 2026-05-05 17:10 | 44.12621 | 9.04654 | 25963 ft | 428 kts | 358° |
| 2026-05-05 17:10 | 44.15592 | 9.05012 | 25959 ft | 428 kts | 358° |
| 2026-05-05 17:11 | 44.18562 | 9.05368 | 25955 ft | 428 kts | 359° |
| 2026-05-05 17:11 | 44.21532 | 9.05725 | 25952 ft | 428 kts | 358° |
| 2026-05-05 17:11 | 44.23501 | 9.05960 | 25950 ft | 428 kts | 358° |
| 2026-05-05 17:11 | 44.26468 | 9.06311 | 25972 ft | 428 kts | 358° |
| 2026-05-05 17:12 | 44.29445 | 9.06661 | 25964 ft | 429 kts | 359° |
| 2026-05-05 17:12 | 44.32434 | 9.07017 | 25972 ft | 434 kts | 359° |
| 2026-05-05 17:12 | 44.35493 | 9.07377 | 25972 ft | 445 kts | 359° |
| 2026-05-05 17:12 | 44.38601 | 9.07745 | 25855 ft | 444 kts | 359° |
| 2026-05-05 17:13 | 44.41637 | 9.08056 | 25338 ft | 437 kts | 354° |
| 2026-05-05 17:13 | 44.44615 | 9.07798 | 24664 ft | 421 kts | 345° |
| 2026-05-05 17:13 | 44.47500 | 9.07223 | 23775 ft | 417 kts | 345° |
| 2026-05-05 17:13 | 44.50361 | 9.06638 | 22855 ft | 412 kts | 345° |
| 2026-05-05 17:14 | 44.53177 | 9.06055 | 22041 ft | 405 kts | 346° |
| 2026-05-05 17:14 | 44.55872 | 9.05500 | 21602 ft | 387 kts | 346° |
| 2026-05-05 17:14 | 44.58489 | 9.04961 | 21162 ft | 372 kts | 345° |
| 2026-05-05 17:14 | 44.61006 | 9.04441 | 20732 ft | 359 kts | 345° |
| 2026-05-05 17:15 | 44.63444 | 9.03936 | 20314 ft | 348 kts | 345° |
| 2026-05-05 17:15 | 44.65833 | 9.03435 | 19908 ft | 347 kts | 345° |
| 2026-05-05 17:15 | 44.68230 | 9.02928 | 19489 ft | 347 kts | 345° |
| 2026-05-05 17:15 | 44.70598 | 9.02430 | 19072 ft | 347 kts | 345° |
| 2026-05-05 17:16 | 44.72990 | 9.01930 | 18665 ft | 346 kts | 346° |
| 2026-05-05 17:16 | 44.75380 | 9.01437 | 18250 ft | 346 kts | 346° |
| 2026-05-05 17:16 | 44.77739 | 9.00951 | 17808 ft | 345 kts | 346° |
| 2026-05-05 17:16 | 44.80114 | 9.00465 | 17399 ft | 344 kts | 346° |
| 2026-05-05 17:17 | 44.82479 | 8.99979 | 16995 ft | 343 kts | 346° |
| 2026-05-05 17:17 | 44.84841 | 8.99488 | 16600 ft | 342 kts | 347° |
| 2026-05-05 17:17 | 44.87192 | 8.98999 | 16197 ft | 340 kts | 346° |
| 2026-05-05 17:17 | 44.89533 | 8.98505 | 15807 ft | 339 kts | 347° |
| 2026-05-05 17:18 | 44.91865 | 8.98007 | 15410 ft | 338 kts | 347° |
| 2026-05-05 17:18 | 44.94189 | 8.97510 | 15021 ft | 337 kts | 347° |
| 2026-05-05 17:18 | 44.96484 | 8.96994 | 14632 ft | 335 kts | 343° |
| 2026-05-05 17:18 | 44.98731 | 8.96166 | 14241 ft | 333 kts | 340° |
| 2026-05-05 17:19 | 45.00972 | 8.95306 | 13866 ft | 332 kts | 341° |
| 2026-05-05 17:19 | 45.03179 | 8.94461 | 13448 ft | 331 kts | 341° |
| 2026-05-05 17:19 | 45.05397 | 8.93613 | 13063 ft | 329 kts | 341° |
| 2026-05-05 17:19 | 45.07600 | 8.92771 | 12661 ft | 327 kts | 341° |
| 2026-05-05 17:20 | 45.09791 | 8.91934 | 12273 ft | 325 kts | 341° |
| 2026-05-05 17:20 | 45.11965 | 8.91103 | 11876 ft | 323 kts | 341° |
| 2026-05-05 17:20 | 45.14135 | 8.90274 | 11480 ft | 321 kts | 341° |
| 2026-05-05 17:20 | 45.16270 | 8.89459 | 11084 ft | 320 kts | 342° |
| 2026-05-05 17:21 | 45.18420 | 8.88639 | 10678 ft | 319 kts | 342° |
| 2026-05-05 17:21 | 45.20563 | 8.87818 | 10282 ft | 318 kts | 342° |
| 2026-05-05 17:21 | 45.22691 | 8.87001 | 10000 ft | 312 kts | 342° |
| 2026-05-05 17:22 | 45.26706 | 8.85456 | 9716 ft | 286 kts | 342° |
| 2026-05-05 17:22 | 45.28562 | 8.84747 | 9584 ft | 266 kts | 342° |
| 2026-05-05 17:22 | 45.30284 | 8.83995 | 9165 ft | 257 kts | 336° |
| 2026-05-05 17:22 | 45.31962 | 8.83043 | 8456 ft | 261 kts | 335° |
| 2026-05-05 17:23 | 45.33655 | 8.82029 | 7765 ft | 265 kts | 334° |
| 2026-05-05 17:23 | 45.35317 | 8.81021 | 7232 ft | 261 kts | 334° |
| 2026-05-05 17:23 | 45.37000 | 8.80068 | 6691 ft | 260 kts | 344° |
| 2026-05-05 17:23 | 45.38789 | 8.79643 | 6177 ft | 259 kts | 351° |
| 2026-05-05 17:24 | 45.40570 | 8.79287 | 5641 ft | 256 kts | 351° |
| 2026-05-05 17:24 | 45.42332 | 8.78939 | 5082 ft | 254 kts | 351° |
| 2026-05-05 17:24 | 45.44057 | 8.78567 | 4427 ft | 255 kts | 349° |
| 2026-05-05 17:24 | 45.45792 | 8.78101 | 3909 ft | 250 kts | 349° |
| 2026-05-05 17:25 | 45.47465 | 8.77635 | 3560 ft | 239 kts | 349° |
| 2026-05-05 17:25 | 45.48534 | 8.77340 | 3350 ft | 231 kts | 349° |
| 2026-05-05 17:25 | 45.50579 | 8.76778 | 2948 ft | 215 kts | 349° |
| 2026-05-05 17:25 | 45.51958 | 8.76398 | 2699 ft | 194 kts | 350° |
| 2026-05-05 17:26 | 45.53247 | 8.76044 | 2422 ft | 182 kts | 351° |
| 2026-05-05 17:26 | 45.54452 | 8.75712 | 2176 ft | 168 kts | 351° |
| 2026-05-05 17:26 | 45.55557 | 8.75407 | 1979 ft | 154 kts | 351° |
| 2026-05-05 17:26 | 45.56562 | 8.75131 | 1764 ft | 145 kts | 351° |
| 2026-05-05 17:27 | 45.57542 | 8.74861 | 1558 ft | 141 kts | 349° |
| 2026-05-05 17:27 | 45.58497 | 8.74598 | 1364 ft | 138 kts | 349° |
| 2026-05-05 17:27 | 45.59422 | 8.74344 | 1173 ft | 136 kts | 349° |
| 2026-05-05 17:27 | 45.60348 | 8.74086 | 1001 ft | 134 kts | 348° |
| 2026-05-05 17:28 | 45.61264 | 8.73821 | 853 ft | 133 kts | 349° |
| 2026-05-05 17:28 | 45.62165 | 8.73586 | 748 ft | 123 kts | 349° |
| 2026-05-05 17:28 | 45.62848 | 8.73397 | 742 ft | 77 kts | 349° |
| 2026-05-05 17:28 | 45.63154 | 8.73247 | 745 ft | 34 kts | 319° |
| 2026-05-05 17:29 | 45.63266 | 8.73055 | 751 ft | 17 kts | 302° |
| 2026-05-05 17:29 | 45.63319 | 8.72946 | 750 ft | 11 kts | 305° |
| 2026-05-05 17:29 | 45.63360 | 8.72861 | 751 ft | 9 kts | 302° |
| 2026-05-05 17:29 | 45.63388 | 8.72796 | 752 ft | 9 kts | 299° |
| 2026-05-05 17:30 | 45.63408 | 8.72676 | 752 ft | 16 kts | 269° |
| 2026-05-05 17:30 | 45.63386 | 8.72483 | 750 ft | 22 kts | 259° |
| 2026-05-05 17:30 | 45.63358 | 8.72286 | 744 ft | 18 kts | 256° |
| 2026-05-05 17:30 | 45.63337 | 8.72123 | 747 ft | 15 kts | 259° |
| 2026-05-05 17:31 | 45.63319 | 8.72008 | 750 ft | 9 kts | 242° |
| 2026-05-05 17:31 | 45.63279 | 8.71974 | 750 ft | 8 kts | 187° |
| 2026-05-05 17:31 | 45.63209 | 8.71987 | 749 ft | 10 kts | 169° |
| 2026-05-05 17:31 | 45.63146 | 8.72004 | 749 ft | 12 kts | 169° |
| 2026-05-05 17:32 | 45.63053 | 8.72029 | 750 ft | 13 kts | 169° |
| 2026-05-05 17:32 | 45.62976 | 8.72049 | 750 ft | 10 kts | 169° |
| 2026-05-05 17:32 | 45.62910 | 8.72070 | 752 ft | 11 kts | 168° |
| 2026-05-05 17:32 | 45.62815 | 8.72096 | 752 ft | 16 kts | 168° |
| 2026-05-05 17:33 | 45.62711 | 8.72112 | 752 ft | 14 kts | 195° |
| 2026-05-05 17:33 | 45.62673 | 8.72007 | 752 ft | 11 kts | 260° |
| 2026-05-05 17:33 | 45.62658 | 8.71895 | 753 ft | 11 kts | 259° |
| 2026-05-05 17:33 | 45.62644 | 8.71783 | 753 ft | 13 kts | 259° |
| 2026-05-05 17:34 | 45.62626 | 8.71651 | 748 ft | 14 kts | 259° |
| 2026-05-05 17:34 | 45.62576 | 8.71597 | 753 ft | 11 kts | 163° |
| 2026-05-05 17:34 | 45.62540 | 8.71605 | 750 ft | 2 kts | 170° |
| 2026-05-05 17:34 | 45.62538 | 8.71606 | 750 ft | 0 kts | 169° |
| 2026-05-05 17:44 | 45.62530 | 8.71526 | 751 ft | 0 kts | 169° |